Stan Humphreys — WDE6252 — position and weather

sailwx.info

Track history (hours):
 
Tides and Currents Weather Stations Pressure Air Temp Water Temp Dewpoint Dewpoint Depression Visibility Wind Speed Wind Dir Waves Ship Positions

Stan Humphreys

Owner: Magnolia Marine Transport company, Vicksburg, MS. More information available from US FCC via Universal Licensing System and Coast Guard Vessel Documentation Center.

Last reported at 2018-Feb-03 16:50 UTC. Time now 2018-Feb-21 09:28 UTC.
Position N 29°33' W 090°24'.
Warning: this ship's position is 17 days out of date.

Length 34 m; draft 3 m.

Type: Towing. MMSI: 367377890.

Date/timePositionNaut miles runAvg speedWind from/ knotsBaromVisibWave heightAir tempDewpointWater temp
2018-Feb-03 16:50N 29°33' W 090°24'4 5.2
2018-Feb-03 16:00N 29°34' W 090°29'3 5.2
2018-Feb-03 15:30N 29°34' W 090°32'2 4.9
2018-Feb-03 15:00N 29°34' W 090°35'2 4.5
2018-Feb-03 14:30N 29°35' W 090°37'2 4.7
2018-Feb-03 14:00N 29°36' W 090°39'2 4.4
2018-Feb-03 13:30N 29°37' W 090°42'2 3.7
2018-Feb-03 13:00N 29°35' W 090°43'2 3.6
2018-Feb-03 12:30N 29°34' W 090°44'2 4.5
2018-Feb-03 12:00N 29°32' W 090°46'2 5.0
2018-Feb-03 11:30N 29°32' W 090°49'3 5.1
2018-Feb-03 10:59N 29°32' W 090°52'2 4.9
2018-Feb-03 10:29N 29°33' W 090°54'56 4.0
2018-Feb-02 20:25N 29°51' W 091°56'2 5.4
2018-Feb-02 20:00N 29°50' W 091°59'5 5.4
2018-Feb-02 19:00N 29°48' W 092°04'3 5.3
2018-Feb-02 18:30N 29°47' W 092°07'3 5.2
2018-Feb-02 18:00N 29°47' W 092°10'3 5.0
2018-Feb-02 17:30N 29°47' W 092°13'3 5.8
2018-Feb-02 17:00N 29°48' W 092°16'3 5.0
2018-Feb-02 16:30N 29°50' W 092°18'38 4.7
2018-Feb-02 08:25N 29°56' W 093°02'2 4.4
2018-Feb-02 08:00N 29°56' W 093°04'2 4.3
2018-Feb-02 07:30N 29°56' W 093°06'2 4.5
2018-Feb-02 07:00N 29°56' W 093°09'2 4.3
2018-Feb-02 06:30N 29°57' W 093°11'2 4.8
2018-Feb-02 06:00N 29°59' W 093°13'2 4.4
2018-Feb-02 05:30N 30°01' W 093°14'2 4.3
2018-Feb-02 05:00N 30°03' W 093°16'2 3.9
2018-Feb-02 04:30N 30°04' W 093°16'2 3.2
2018-Feb-02 04:00N 30°05' W 093°18'1 1.3
2018-Feb-02 03:30N 30°06' W 093°18'0 0.1
2018-Feb-02 03:00N 30°06' W 093°18'1 2.5
2018-Feb-02 02:30N 30°05' W 093°20'2 3.9
2018-Feb-02 02:00N 30°04' W 093°21'1 2.3
2018-Feb-02 01:30N 30°04' W 093°22'2 4.1
2018-Feb-02 01:00N 30°04' W 093°25'2 4.4
2018-Feb-02 00:30N 30°04' W 093°27'2 4.8
2018-Feb-01 23:59N 30°04' W 093°30'2 4.6
2018-Feb-01 23:30N 30°04' W 093°33'3 5.0
2018-Feb-01 22:59N 30°04' W 093°35'5 5.1
2018-Feb-01 21:58N 30°04' W 093°42'2 5.0
2018-Feb-01 21:30N 30°03' W 093°44'10 5.1
2018-Feb-01 19:30N 29°56' W 093°53'3 6.7
2018-Feb-01 19:00N 29°53' W 093°55'3 6.8
2018-Feb-01 18:30N 29°50' W 093°57'2 4.0
2018-Feb-01 18:00N 29°49' W 093°59'2 3.4
2018-Feb-01 17:30N 29°48' W 094°00'3 5.4
2018-Feb-01 17:00N 29°46' W 094°03'3 5.4
2018-Feb-01 16:30N 29°44' W 094°05'3 5.3
2018-Feb-01 16:00N 29°43' W 094°08'3 5.3
2018-Feb-01 15:30N 29°41' W 094°10'3 5.3
2018-Feb-01 15:00N 29°40' W 094°13'8 5.1
2018-Feb-01 13:29N 29°37' W 094°21'2 4.6
2018-Feb-01 13:00N 29°36' W 094°23'2 3.2
2018-Feb-01 12:30N 29°35' W 094°25'2 3.6
2018-Feb-01 12:00N 29°34' W 094°27'8 2.8
2018-Feb-01 09:17N 29°30' W 094°34'17 3.5
2018-Feb-01 04:36N 29°31' W 094°53'1 6.6
2018-Feb-01 04:30N 29°31' W 094°53'5 7.1
2018-Feb-01 03:52N 29°35' W 094°56'6 7.5
2018-Feb-01 03:00N 29°41' W 094°59'3 4.6
2018-Feb-01 02:20N 29°42' W 095°02'0 1.4
2018-Feb-01 01:59N 29°43' W 095°03'0 0.1
2018-Feb-01 01:30N 29°43' W 095°03'0 0.0
2018-Jan-31 14:19N 29°42' W 095°03'0 0.0
2018-Jan-31 12:58N 29°42' W 095°03'0 0.0
2018-Jan-31 12:07N 29°42' W 095°03'0 0.0
2018-Jan-31 11:49N 29°42' W 095°03'0 0.0
2018-Jan-31 11:28N 29°42' W 095°03'0 0.0
2018-Jan-31 10:58N 29°42' W 095°03'0 0.0
2018-Jan-31 10:19N 29°42' W 095°03'0 0.0
2018-Jan-31 09:49N 29°42' W 095°03'0 0.0
2018-Jan-31 09:25N 29°42' W 095°03'0 0.0
2018-Jan-31 08:55N 29°42' W 095°03'0 0.0
2018-Jan-31 08:28N 29°42' W 095°03'0 0.0
2018-Jan-31 07:52N 29°42' W 095°03'0 0.0
2018-Jan-31 07:25N 29°42' W 095°03'0 0.0
2018-Jan-31 06:58N 29°42' W 095°03'0 0.0
2018-Jan-31 06:28N 29°42' W 095°03'0 0.0
2018-Jan-31 04:22N 29°42' W 095°03'0 0.0
2018-Jan-31 03:58N 29°42' W 095°03'0 0.0
2018-Jan-31 03:28N 29°42' W 095°03'0 0.0
2018-Jan-31 02:58N 29°42' W 095°03'0 0.0
2018-Jan-31 02:28N 29°42' W 095°03'0 0.0
2018-Jan-31 01:58N 29°42' W 095°03'0 0.0
2018-Jan-31 01:28N 29°42' W 095°03'0 0.0
2018-Jan-31 00:58N 29°42' W 095°03'0 0.0
2018-Jan-30 23:46N 29°42' W 095°03'0 0.0
2018-Jan-30 23:28N 29°42' W 095°03'0 0.0
2018-Jan-30 22:58N 29°42' W 095°03'0 0.0
2018-Jan-30 22:28N 29°42' W 095°03'0 0.0
2018-Jan-30 21:28N 29°42' W 095°03'0 0.0
2018-Jan-30 20:58N 29°42' W 095°03'0 0.0
2018-Jan-30 20:28N 29°42' W 095°03'0 0.0
2018-Jan-30 18:16N 29°42' W 095°03'0 0.0
2018-Jan-30 17:46N 29°42' W 095°03'0 0.0
2018-Jan-30 17:28N 29°42' W 095°03'0 0.0
2018-Jan-30 16:58N 29°42' W 095°03'0 0.0
2018-Jan-30 15:58N 29°42' W 095°03'0 0.0
2018-Jan-30 14:28N 29°42' W 095°03'0 0.0
2018-Jan-30 11:07N 29°42' W 095°03'0 0.0
2018-Jan-30 10:28N 29°42' W 095°03'0 0.0
2018-Jan-30 09:28N 29°42' W 095°03'0 0.0
2018-Jan-30 08:58N 29°42' W 095°03'0 0.0
2018-Jan-30 08:28N 29°42' W 095°03'0 0.0
2018-Jan-30 07:58N 29°42' W 095°03'0 0.0
2018-Jan-30 07:28N 29°42' W 095°03'0 0.0
2018-Jan-30 06:58N 29°42' W 095°03'0 0.0
2018-Jan-30 06:28N 29°42' W 095°03'0 0.0
2018-Jan-30 05:58N 29°42' W 095°03'0 0.0
2018-Jan-30 05:28N 29°42' W 095°03'0 0.0
2018-Jan-30 04:58N 29°42' W 095°03'0 0.0
2018-Jan-30 04:28N 29°42' W 095°03'0 0.0
2018-Jan-30 03:58N 29°42' W 095°03'0 0.0
2018-Jan-30 03:25N 29°42' W 095°03'0 0.0
2018-Jan-30 02:55N 29°42' W 095°03'0 0.0
2018-Jan-30 02:28N 29°42' W 095°03'0 0.0
2018-Jan-30 01:58N 29°42' W 095°03'0 0.0
2018-Jan-30 01:28N 29°42' W 095°03'0 0.0
2018-Jan-30 00:55N 29°42' W 095°03'0 0.0
2018-Jan-30 00:28N 29°42' W 095°03'0 0.0
2018-Jan-29 23:58N 29°42' W 095°03'0 0.0
2018-Jan-29 23:28N 29°42' W 095°03'0 0.0
2018-Jan-29 22:46N 29°42' W 095°03'0 0.0
2018-Jan-29 17:47N 29°43' W 095°03'0 0.0
2018-Jan-29 14:23N 29°42' W 095°03'0 0.0
2018-Jan-29 13:59N 29°42' W 095°03'0 0.0
2018-Jan-29 13:23N 29°42' W 095°03'0 0.0
2018-Jan-29 12:47N 29°42' W 095°03'0 0.0
2018-Jan-29 12:05N 29°42' W 095°03'0 0.1
2018-Jan-29 11:59N 29°42' W 095°03'0 0.0
2018-Jan-29 10:59N 29°42' W 095°03'0 0.0
2018-Jan-29 10:29N 29°42' W 095°03'0 0.0
2018-Jan-29 09:41N 29°42' W 095°03'0 0.0
2018-Jan-29 09:17N 29°42' W 095°03'0 0.0
2018-Jan-29 08:53N 29°42' W 095°03'0 0.0
2018-Jan-29 08:17N 29°42' W 095°03'0 0.0
2018-Jan-29 07:47N 29°42' W 095°03'0 0.0
2018-Jan-29 06:59N 29°42' W 095°03'0 0.0
2018-Jan-29 06:29N 29°42' W 095°03'0 0.0
2018-Jan-29 05:59N 29°42' W 095°03'0 0.0
2018-Jan-29 05:29N 29°42' W 095°03'0 0.0
2018-Jan-29 04:59N 29°42' W 095°03'0 0.0
2018-Jan-29 04:29N 29°42' W 095°03'0 0.0
2018-Jan-29 03:29N 29°42' W 095°03'0 0.0
2018-Jan-29 01:59N 29°42' W 095°03'0 0.0
2018-Jan-28 22:26N 29°42' W 095°03'0 0.1
2018-Jan-28 21:59N 29°43' W 095°03'0 0.0
2018-Jan-28 21:30N 29°43' W 095°03'0 0.0
2018-Jan-28 21:01N 29°43' W 095°03'0 0.0
2018-Jan-28 20:30N 29°43' W 095°03'0 0.0
2018-Jan-28 19:57N 29°43' W 095°03'0 0.0
2018-Jan-28 19:28N 29°43' W 095°03'0 0.0
2018-Jan-28 18:57N 29°43' W 095°03'0 0.0
2018-Jan-28 18:28N 29°43' W 095°03'0 0.0
2018-Jan-28 17:55N 29°43' W 095°03'0 0.0
2018-Jan-28 17:25N 29°43' W 095°03'0 0.0
2018-Jan-28 17:00N 29°43' W 095°03'0 0.0
2018-Jan-28 16:25N 29°43' W 095°03'0 0.0
2018-Jan-28 15:53N 29°43' W 095°03'0 0.0
2018-Jan-28 15:27N 29°43' W 095°03'0 0.0
2018-Jan-28 15:00N 29°43' W 095°03'0 0.0
2018-Jan-28 14:28N 29°43' W 095°03'0 0.0
2018-Jan-28 14:00N 29°43' W 095°03'0 0.0
2018-Jan-28 13:31N 29°43' W 095°03'0 0.0
2018-Jan-28 12:55N 29°43' W 095°03'0 0.0
2018-Jan-28 12:31N 29°43' W 095°03'0 0.0
2018-Jan-28 12:00N 29°43' W 095°03'0 0.0
2018-Jan-28 11:29N 29°43' W 095°03'0 0.1
2018-Jan-28 10:58N 29°42' W 095°03'1 1.7
2018-Jan-28 10:26N 29°42' W 095°02'1 0.0
2018-Jan-26 16:40N 29°44' W 095°01'1 4.1
2018-Jan-26 16:30N 29°43' W 095°01'3 5.9
2018-Jan-26 16:01N 29°41' W 094°59'4 8.0
2018-Jan-26 15:31N 29°37' W 094°57'4 7.9
2018-Jan-26 15:00N 29°34' W 094°55'4 7.7
2018-Jan-26 14:30N 29°30' W 094°53'  
Track history (hours):
 
Tides and Currents Weather Stations Pressure Air Temp Water Temp Dewpoint Dewpoint Depression Visibility Wind Speed Wind Dir Waves Ship Positions

Stan Humphreys

Owner: Magnolia Marine Transport company, Vicksburg, MS. More information available from US FCC via Universal Licensing System and Coast Guard Vessel Documentation Center.

Last reported at 2018-Feb-03 16:50 UTC. Time now 2018-Feb-21 09:28 UTC.
Position N 29°33' W 090°24'.
Warning: this ship's position is 17 days out of date.

Length 34 m; draft 3 m.

Type: Towing. MMSI: 367377890.

Date/timePositionNaut miles runAvg speedWind from/ knotsBaromVisibWave heightAir tempDewpointWater temp
2018-Feb-03 16:50N 29°33' W 090°24'4 5.2
2018-Feb-03 16:00N 29°34' W 090°29'3 5.2
2018-Feb-03 15:30N 29°34' W 090°32'2 4.9
2018-Feb-03 15:00N 29°34' W 090°35'2 4.5
2018-Feb-03 14:30N 29°35' W 090°37'2 4.7
2018-Feb-03 14:00N 29°36' W 090°39'2 4.4
2018-Feb-03 13:30N 29°37' W 090°42'2 3.7
2018-Feb-03 13:00N 29°35' W 090°43'2 3.6
2018-Feb-03 12:30N 29°34' W 090°44'2 4.5
2018-Feb-03 12:00N 29°32' W 090°46'2 5.0
2018-Feb-03 11:30N 29°32' W 090°49'3 5.1
2018-Feb-03 10:59N 29°32' W 090°52'2 4.9
2018-Feb-03 10:29N 29°33' W 090°54'56 4.0
2018-Feb-02 20:25N 29°51' W 091°56'2 5.4
2018-Feb-02 20:00N 29°50' W 091°59'5 5.4
2018-Feb-02 19:00N 29°48' W 092°04'3 5.3
2018-Feb-02 18:30N 29°47' W 092°07'3 5.2
2018-Feb-02 18:00N 29°47' W 092°10'3 5.0
2018-Feb-02 17:30N 29°47' W 092°13'3 5.8
2018-Feb-02 17:00N 29°48' W 092°16'3 5.0
2018-Feb-02 16:30N 29°50' W 092°18'38 4.7
2018-Feb-02 08:25N 29°56' W 093°02'2 4.4
2018-Feb-02 08:00N 29°56' W 093°04'2 4.3
2018-Feb-02 07:30N 29°56' W 093°06'2 4.5
2018-Feb-02 07:00N 29°56' W 093°09'2 4.3
2018-Feb-02 06:30N 29°57' W 093°11'2 4.8
2018-Feb-02 06:00N 29°59' W 093°13'2 4.4
2018-Feb-02 05:30N 30°01' W 093°14'2 4.3
2018-Feb-02 05:00N 30°03' W 093°16'2 3.9
2018-Feb-02 04:30N 30°04' W 093°16'2 3.2
2018-Feb-02 04:00N 30°05' W 093°18'1 1.3
2018-Feb-02 03:30N 30°06' W 093°18'0 0.1
2018-Feb-02 03:00N 30°06' W 093°18'1 2.5
2018-Feb-02 02:30N 30°05' W 093°20'2 3.9
2018-Feb-02 02:00N 30°04' W 093°21'1 2.3
2018-Feb-02 01:30N 30°04' W 093°22'2 4.1
2018-Feb-02 01:00N 30°04' W 093°25'2 4.4
2018-Feb-02 00:30N 30°04' W 093°27'2 4.8
2018-Feb-01 23:59N 30°04' W 093°30'2 4.6
2018-Feb-01 23:30N 30°04' W 093°33'3 5.0
2018-Feb-01 22:59N 30°04' W 093°35'5 5.1
2018-Feb-01 21:58N 30°04' W 093°42'2 5.0
2018-Feb-01 21:30N 30°03' W 093°44'10 5.1
2018-Feb-01 19:30N 29°56' W 093°53'3 6.7
2018-Feb-01 19:00N 29°53' W 093°55'3 6.8
2018-Feb-01 18:30N 29°50' W 093°57'2 4.0
2018-Feb-01 18:00N 29°49' W 093°59'2 3.4
2018-Feb-01 17:30N 29°48' W 094°00'3 5.4
2018-Feb-01 17:00N 29°46' W 094°03'3 5.4
2018-Feb-01 16:30N 29°44' W 094°05'3 5.3
2018-Feb-01 16:00N 29°43' W 094°08'3 5.3
2018-Feb-01 15:30N 29°41' W 094°10'3 5.3
2018-Feb-01 15:00N 29°40' W 094°13'8 5.1
2018-Feb-01 13:29N 29°37' W 094°21'2 4.6
2018-Feb-01 13:00N 29°36' W 094°23'2 3.2
2018-Feb-01 12:30N 29°35' W 094°25'2 3.6
2018-Feb-01 12:00N 29°34' W 094°27'8 2.8
2018-Feb-01 09:17N 29°30' W 094°34'17 3.5
2018-Feb-01 04:36N 29°31' W 094°53'1 6.6
2018-Feb-01 04:30N 29°31' W 094°53'5 7.1
2018-Feb-01 03:52N 29°35' W 094°56'6 7.5
2018-Feb-01 03:00N 29°41' W 094°59'3 4.6
2018-Feb-01 02:20N 29°42' W 095°02'0 1.4
2018-Feb-01 01:59N 29°43' W 095°03'0 0.1
2018-Feb-01 01:30N 29°43' W 095°03'0 0.0
2018-Jan-31 14:19N 29°42' W 095°03'0 0.0
2018-Jan-31 12:58N 29°42' W 095°03'0 0.0
2018-Jan-31 12:07N 29°42' W 095°03'0 0.0
2018-Jan-31 11:49N 29°42' W 095°03'0 0.0
2018-Jan-31 11:28N 29°42' W 095°03'0 0.0
2018-Jan-31 10:58N 29°42' W 095°03'0 0.0
2018-Jan-31 10:19N 29°42' W 095°03'0 0.0
2018-Jan-31 09:49N 29°42' W 095°03'0 0.0
2018-Jan-31 09:25N 29°42' W 095°03'0 0.0
2018-Jan-31 08:55N 29°42' W 095°03'0 0.0
2018-Jan-31 08:28N 29°42' W 095°03'0 0.0
2018-Jan-31 07:52N 29°42' W 095°03'0 0.0
2018-Jan-31 07:25N 29°42' W 095°03'0 0.0
2018-Jan-31 06:58N 29°42' W 095°03'0 0.0
2018-Jan-31 06:28N 29°42' W 095°03'0 0.0
2018-Jan-31 04:22N 29°42' W 095°03'0 0.0
2018-Jan-31 03:58N 29°42' W 095°03'0 0.0
2018-Jan-31 03:28N 29°42' W 095°03'0 0.0
2018-Jan-31 02:58N 29°42' W 095°03'0 0.0
2018-Jan-31 02:28N 29°42' W 095°03'0 0.0
2018-Jan-31 01:58N 29°42' W 095°03'0 0.0
2018-Jan-31 01:28N 29°42' W 095°03'0 0.0
2018-Jan-31 00:58N 29°42' W 095°03'0 0.0
2018-Jan-30 23:46N 29°42' W 095°03'0 0.0
2018-Jan-30 23:28N 29°42' W 095°03'0 0.0
2018-Jan-30 22:58N 29°42' W 095°03'0 0.0
2018-Jan-30 22:28N 29°42' W 095°03'0 0.0
2018-Jan-30 21:28N 29°42' W 095°03'0 0.0
2018-Jan-30 20:58N 29°42' W 095°03'0 0.0
2018-Jan-30 20:28N 29°42' W 095°03'0 0.0
2018-Jan-30 18:16N 29°42' W 095°03'0 0.0
2018-Jan-30 17:46N 29°42' W 095°03'0 0.0
2018-Jan-30 17:28N 29°42' W 095°03'0 0.0
2018-Jan-30 16:58N 29°42' W 095°03'0 0.0
2018-Jan-30 15:58N 29°42' W 095°03'0 0.0
2018-Jan-30 14:28N 29°42' W 095°03'0 0.0
2018-Jan-30 11:07N 29°42' W 095°03'0 0.0
2018-Jan-30 10:28N 29°42' W 095°03'0 0.0
2018-Jan-30 09:28N 29°42' W 095°03'0 0.0
2018-Jan-30 08:58N 29°42' W 095°03'0 0.0
2018-Jan-30 08:28N 29°42' W 095°03'0 0.0
2018-Jan-30 07:58N 29°42' W 095°03'0 0.0
2018-Jan-30 07:28N 29°42' W 095°03'0 0.0
2018-Jan-30 06:58N 29°42' W 095°03'0 0.0
2018-Jan-30 06:28N 29°42' W 095°03'0 0.0
2018-Jan-30 05:58N 29°42' W 095°03'0 0.0
2018-Jan-30 05:28N 29°42' W 095°03'0 0.0
2018-Jan-30 04:58N 29°42' W 095°03'0 0.0
2018-Jan-30 04:28N 29°42' W 095°03'0 0.0
2018-Jan-30 03:58N 29°42' W 095°03'0 0.0
2018-Jan-30 03:25N 29°42' W 095°03'0 0.0
2018-Jan-30 02:55N 29°42' W 095°03'0 0.0
2018-Jan-30 02:28N 29°42' W 095°03'0 0.0
2018-Jan-30 01:58N 29°42' W 095°03'0 0.0
2018-Jan-30 01:28N 29°42' W 095°03'0 0.0
2018-Jan-30 00:55N 29°42' W 095°03'0 0.0
2018-Jan-30 00:28N 29°42' W 095°03'0 0.0
2018-Jan-29 23:58N 29°42' W 095°03'0 0.0
2018-Jan-29 23:28N 29°42' W 095°03'0 0.0
2018-Jan-29 22:46N 29°42' W 095°03'0 0.0
2018-Jan-29 17:47N 29°43' W 095°03'0 0.0
2018-Jan-29 14:23N 29°42' W 095°03'0 0.0
2018-Jan-29 13:59N 29°42' W 095°03'0 0.0
2018-Jan-29 13:23N 29°42' W 095°03'0 0.0
2018-Jan-29 12:47N 29°42' W 095°03'0 0.0
2018-Jan-29 12:05N 29°42' W 095°03'0 0.1
2018-Jan-29 11:59N 29°42' W 095°03'0 0.0
2018-Jan-29 10:59N 29°42' W 095°03'0 0.0
2018-Jan-29 10:29N 29°42' W 095°03'0 0.0
2018-Jan-29 09:41N 29°42' W 095°03'0 0.0
2018-Jan-29 09:17N 29°42' W 095°03'0 0.0
2018-Jan-29 08:53N 29°42' W 095°03'0 0.0
2018-Jan-29 08:17N 29°42' W 095°03'0 0.0
2018-Jan-29 07:47N 29°42' W 095°03'0 0.0
2018-Jan-29 06:59N 29°42' W 095°03'0 0.0
2018-Jan-29 06:29N 29°42' W 095°03'0 0.0
2018-Jan-29 05:59N 29°42' W 095°03'0 0.0
2018-Jan-29 05:29N 29°42' W 095°03'0 0.0
2018-Jan-29 04:59N 29°42' W 095°03'0 0.0
2018-Jan-29 04:29N 29°42' W 095°03'0 0.0
2018-Jan-29 03:29N 29°42' W 095°03'0 0.0
2018-Jan-29 01:59N 29°42' W 095°03'0 0.0
2018-Jan-28 22:26N 29°42' W 095°03'0 0.1
2018-Jan-28 21:59N 29°43' W 095°03'0 0.0
2018-Jan-28 21:30N 29°43' W 095°03'0 0.0
2018-Jan-28 21:01N 29°43' W 095°03'0 0.0
2018-Jan-28 20:30N 29°43' W 095°03'0 0.0
2018-Jan-28 19:57N 29°43' W 095°03'0 0.0
2018-Jan-28 19:28N 29°43' W 095°03'0 0.0
2018-Jan-28 18:57N 29°43' W 095°03'0 0.0
2018-Jan-28 18:28N 29°43' W 095°03'0 0.0
2018-Jan-28 17:55N 29°43' W 095°03'0 0.0
2018-Jan-28 17:25N 29°43' W 095°03'0 0.0
2018-Jan-28 17:00N 29°43' W 095°03'0 0.0
2018-Jan-28 16:25N 29°43' W 095°03'0 0.0
2018-Jan-28 15:53N 29°43' W 095°03'0 0.0
2018-Jan-28 15:27N 29°43' W 095°03'0 0.0
2018-Jan-28 15:00N 29°43' W 095°03'0 0.0
2018-Jan-28 14:28N 29°43' W 095°03'0 0.0
2018-Jan-28 14:00N 29°43' W 095°03'0 0.0
2018-Jan-28 13:31N 29°43' W 095°03'0 0.0
2018-Jan-28 12:55N 29°43' W 095°03'0 0.0
2018-Jan-28 12:31N 29°43' W 095°03'0 0.0
2018-Jan-28 12:00N 29°43' W 095°03'0 0.0
2018-Jan-28 11:29N 29°43' W 095°03'0 0.1
2018-Jan-28 10:58N 29°42' W 095°03'1 1.7
2018-Jan-28 10:26N 29°42' W 095°02'1 0.0
2018-Jan-26 16:40N 29°44' W 095°01'1 4.1
2018-Jan-26 16:30N 29°43' W 095°01'3 5.9
2018-Jan-26 16:01N 29°41' W 094°59'4 8.0
2018-Jan-26 15:31N 29°37' W 094°57'4 7.9
2018-Jan-26 15:00N 29°34' W 094°55'4 7.7
2018-Jan-26 14:30N 29°30' W 094°53'  

Dump ship's entire track history